createdAt,value
2023-04-07T00:01:33.075Z,3.97
2023-04-07T00:04:01.317Z,3.91
2023-04-07T00:06:29.450Z,3.93
2023-04-07T00:08:57.352Z,3.91
2023-04-07T00:11:25.652Z,3.96
2023-04-07T00:13:55.277Z,4.07
2023-04-07T00:16:23.659Z,4.11
2023-04-07T00:18:51.602Z,4.21
2023-04-07T00:21:19.592Z,4.08
2023-04-07T00:23:47.840Z,4.00
2023-04-07T00:26:15.770Z,3.84
2023-04-07T00:28:43.769Z,3.84
2023-04-07T00:31:13.090Z,4.08
2023-04-07T00:33:41.066Z,4.05
2023-04-07T00:36:09.320Z,3.91
2023-04-07T00:38:37.308Z,3.89
2023-04-07T00:41:05.911Z,3.96
2023-04-07T00:43:33.873Z,4.03
2023-04-07T00:46:02.578Z,4.04
2023-04-07T00:48:32.151Z,4.16
2023-04-07T00:51:00.140Z,4.11
2023-04-07T00:53:28.197Z,3.96
2023-04-07T00:55:56.363Z,4.07
2023-04-07T00:58:24.268Z,3.81
2023-04-07T01:00:59.323Z,3.82
2023-04-07T01:03:35.009Z,3.96
2023-04-07T01:06:04.185Z,3.99
2023-04-07T01:08:39.735Z,3.96
2023-04-07T01:11:14.826Z,3.95
2023-04-07T01:13:47.646Z,3.94
2023-04-07T01:16:21.064Z,4.05
2023-04-07T01:18:55.545Z,4.01
2023-04-07T01:21:24.094Z,4.10
2023-04-07T01:24:06.828Z,4.18
2023-04-07T01:26:35.367Z,4.09
2023-04-07T01:29:12.899Z,4.06
2023-04-07T01:31:43.195Z,4.24
2023-04-07T01:34:12.184Z,4.19
2023-04-07T01:36:41.135Z,4.16
2023-04-07T01:39:10.696Z,4.18
2023-04-07T01:41:39.503Z,4.14
2023-04-07T01:44:09.227Z,4.16
2023-04-07T01:46:37.137Z,4.24
2023-04-07T01:49:07.741Z,4.11
2023-04-07T01:51:36.017Z,4.24
2023-04-07T01:54:05.801Z,4.43
2023-04-07T01:56:33.728Z,4.46
2023-04-07T01:59:01.644Z,4.41
2023-04-07T02:01:31.009Z,4.39
2023-04-07T02:04:07.800Z,4.14
2023-04-07T02:06:43.385Z,4.36
2023-04-07T02:09:14.479Z,4.37
2023-04-07T02:11:45.064Z,4.08
2023-04-07T02:14:14.659Z,3.89
2023-04-07T02:16:45.210Z,3.89
2023-04-07T02:19:14.845Z,4.02
2023-04-07T02:21:46.799Z,4.03
2023-04-07T02:24:14.734Z,4.04
2023-04-07T02:26:44.193Z,4.05
2023-04-07T02:29:12.100Z,4.13
2023-04-07T02:31:40.143Z,4.02
2023-04-07T02:34:08.070Z,4.07
2023-04-07T02:36:35.964Z,3.95
2023-04-07T02:39:05.574Z,4.10
2023-04-07T02:41:33.519Z,4.01
2023-04-07T02:44:01.436Z,4.09
2023-04-07T02:46:29.360Z,4.20
2023-04-07T02:48:57.317Z,4.03
2023-04-07T02:51:25.236Z,4.14
2023-04-07T02:53:53.347Z,3.92
2023-04-07T02:56:22.706Z,3.89
2023-04-07T02:58:50.689Z,3.70
2023-04-07T03:01:18.658Z,3.73
2023-04-07T03:03:47.925Z,3.89
2023-04-07T03:06:16.060Z,3.77
2023-04-07T03:08:44.160Z,3.74
2023-04-07T03:11:12.395Z,3.63
2023-04-07T03:13:41.936Z,3.92
2023-04-07T03:16:09.895Z,3.94
2023-04-07T03:18:37.806Z,4.04
2023-04-07T03:21:05.737Z,3.97
2023-04-07T03:23:33.644Z,4.11
2023-04-07T03:26:01.605Z,3.86
2023-04-07T03:28:29.494Z,3.63
2023-04-07T03:30:59.003Z,3.58
2023-04-07T03:33:26.922Z,3.70
2023-04-07T03:35:54.912Z,3.28
2023-04-07T03:38:22.961Z,3.13
2023-04-07T03:40:50.978Z,3.21
2023-04-07T03:43:18.956Z,3.21
2023-04-07T03:45:47.905Z,3.34
2023-04-07T03:48:17.236Z,3.38
2023-04-07T03:50:45.233Z,3.30
2023-04-07T03:53:14.020Z,3.19
2023-04-07T03:55:42.000Z,2.91
2023-04-07T03:58:10.256Z,3.01
2023-04-07T04:00:38.462Z,2.91
2023-04-07T04:03:06.575Z,2.87
2023-04-07T04:05:35.988Z,2.82
2023-04-07T04:08:03.911Z,2.80
2023-04-07T04:10:31.921Z,2.81
2023-04-07T04:13:00.834Z,2.54
2023-04-07T04:15:28.733Z,2.95
2023-04-07T04:17:56.677Z,2.75
2023-04-07T04:20:24.607Z,2.70
2023-04-07T04:22:53.899Z,2.70
2023-04-07T04:25:22.119Z,2.87
2023-04-07T04:27:50.071Z,2.62
2023-04-07T04:30:18.060Z,2.47
2023-04-07T04:32:46.052Z,2.55
2023-04-07T04:35:14.206Z,2.77
2023-04-07T04:37:42.131Z,2.81
2023-04-07T04:40:12.819Z,2.79
2023-04-07T04:42:41.068Z,3.06
2023-04-07T04:45:10.131Z,3.18
2023-04-07T04:47:39.097Z,3.27
2023-04-07T04:50:07.881Z,3.31
2023-04-07T04:52:35.803Z,3.61
2023-04-07T04:55:03.981Z,3.88
2023-04-07T04:57:34.814Z,3.99
2023-04-07T05:00:03.034Z,4.36
2023-04-07T05:02:31.170Z,4.54
2023-04-07T05:04:59.359Z,4.71
2023-04-07T05:07:27.693Z,5.07
2023-04-07T05:09:55.584Z,5.38
2023-04-07T05:12:23.531Z,5.66
2023-04-07T05:14:52.872Z,5.88
2023-04-07T05:17:20.823Z,6.03
2023-04-07T05:19:48.847Z,6.19
2023-04-07T05:22:16.875Z,6.38
2023-04-07T05:24:44.890Z,6.53
2023-04-07T05:27:12.812Z,6.83
2023-04-07T05:29:40.759Z,6.95
2023-04-07T05:32:10.077Z,7.06
2023-04-07T05:34:38.064Z,7.17
2023-04-07T05:37:05.991Z,7.39
2023-04-07T05:39:33.907Z,7.54
2023-04-07T05:42:02.314Z,7.70
2023-04-07T05:44:30.407Z,7.85
2023-04-07T05:46:58.321Z,7.90
2023-04-07T05:49:27.794Z,7.89
2023-04-07T05:51:56.034Z,7.85
2023-04-07T05:54:24.020Z,7.90
2023-04-07T05:56:51.988Z,7.95
2023-04-07T05:59:19.914Z,7.92
2023-04-07T06:01:47.967Z,8.04
2023-04-07T06:04:16.046Z,8.15
2023-04-07T06:06:45.439Z,8.29
2023-04-07T06:09:13.374Z,8.23
2023-04-07T06:11:41.306Z,8.38
2023-04-07T06:14:09.237Z,8.22
2023-04-07T06:16:37.291Z,8.30
2023-04-07T06:19:05.291Z,8.60
2023-04-07T06:21:33.196Z,8.75
2023-04-07T06:24:02.778Z,8.88
2023-04-07T06:26:30.776Z,8.88
2023-04-07T06:28:59.516Z,8.70
2023-04-07T06:31:28.137Z,9.11
2023-04-07T06:33:56.415Z,9.12
2023-04-07T06:36:24.730Z,9.24
2023-04-07T06:38:52.754Z,9.30
2023-04-07T06:41:22.076Z,9.39
2023-04-07T06:43:51.386Z,9.49
2023-04-07T06:46:19.637Z,9.63
2023-04-07T06:48:47.738Z,9.53
2023-04-07T06:51:15.723Z,9.86
2023-04-07T06:53:44.378Z,9.96
2023-04-07T06:56:13.200Z,9.67
2023-04-07T06:58:42.490Z,9.88
2023-04-07T07:01:10.445Z,9.78
2023-04-07T07:03:38.454Z,9.35
2023-04-07T07:06:06.668Z,9.68
2023-04-07T07:08:34.744Z,9.97
2023-04-07T07:11:02.724Z,9.76
2023-04-07T07:13:30.610Z,9.75
2023-04-07T07:16:01.141Z,9.72
2023-04-07T07:18:31.595Z,10.02
2023-04-07T07:20:59.821Z,10.26
2023-04-07T07:23:27.671Z,10.48
2023-04-07T07:25:55.615Z,10.43
2023-04-07T07:28:23.851Z,10.51
2023-04-07T07:30:51.798Z,10.73
2023-04-07T07:33:22.851Z,10.47
2023-04-07T07:35:50.870Z,9.84
2023-04-07T07:38:18.824Z,9.87
2023-04-07T07:40:47.228Z,9.97
2023-04-07T07:43:15.467Z,10.47
2023-04-07T07:45:43.531Z,10.18
2023-04-07T07:48:12.130Z,10.10
2023-04-07T07:50:42.895Z,10.30
2023-04-07T07:53:11.075Z,10.87
2023-04-07T07:55:39.429Z,11.24
2023-04-07T07:58:07.353Z,10.28
2023-04-07T08:00:35.295Z,10.32
2023-04-07T08:03:03.412Z,10.86
2023-04-07T08:05:31.939Z,11.15
2023-04-07T08:08:01.696Z,11.44
2023-04-07T08:10:29.812Z,10.38
2023-04-07T08:12:57.826Z,10.22
2023-04-07T08:15:26.724Z,10.61
2023-04-07T08:17:56.340Z,11.12
2023-04-07T08:20:24.987Z,11.35
2023-04-07T08:22:53.561Z,11.33
2023-04-07T08:25:22.962Z,11.60
2023-04-07T08:27:50.990Z,11.58
2023-04-07T08:30:21.118Z,11.47
2023-04-07T08:32:49.972Z,10.99
2023-04-07T08:35:18.004Z,11.39
2023-04-07T08:37:46.043Z,11.95
2023-04-07T08:40:14.402Z,12.21
2023-04-07T08:42:48.430Z,11.72
2023-04-07T08:45:19.133Z,12.05
2023-04-07T08:47:49.377Z,12.45
2023-04-07T08:50:19.349Z,12.83
2023-04-07T08:52:55.611Z,13.10
2023-04-07T08:55:23.904Z,13.07
2023-04-07T08:57:54.690Z,12.50
2023-04-07T09:00:22.854Z,11.82
2023-04-07T09:02:52.774Z,11.08
2023-04-07T09:05:22.089Z,11.48
2023-04-07T09:07:50.838Z,11.94
2023-04-07T09:10:18.899Z,12.08
2023-04-07T09:12:47.392Z,12.52
2023-04-07T09:15:17.089Z,12.08
2023-04-07T09:17:45.523Z,12.62
2023-04-07T09:20:13.787Z,12.91
2023-04-07T09:22:43.581Z,13.06
2023-04-07T09:25:16.503Z,13.21
2023-04-07T09:27:59.349Z,13.84
2023-04-07T09:30:29.893Z,13.35
2023-04-07T09:32:59.196Z,12.56
2023-04-07T09:35:28.556Z,13.11
2023-04-07T09:38:04.874Z,13.69
2023-04-07T09:40:33.133Z,14.14
2023-04-07T09:43:01.530Z,13.68
2023-04-07T09:45:35.776Z,13.71
2023-04-07T09:48:09.057Z,13.44
2023-04-07T09:50:41.557Z,13.50
2023-04-07T09:53:09.714Z,13.46
2023-04-07T09:55:38.942Z,12.67
2023-04-07T09:58:07.670Z,12.94
2023-04-07T10:00:37.505Z,13.22
2023-04-07T10:03:06.649Z,12.65
2023-04-07T10:05:36.672Z,12.05
2023-04-07T10:08:05.326Z,12.46
2023-04-07T10:10:34.239Z,12.17
2023-04-07T10:13:05.912Z,11.42
2023-04-07T10:15:34.543Z,12.61
2023-04-07T10:18:08.660Z,13.36
2023-04-07T10:20:40.200Z,13.31
2023-04-07T10:23:17.667Z,12.87
2023-04-07T10:25:48.928Z,12.53
2023-04-07T10:28:19.542Z,12.98
2023-04-07T10:30:50.018Z,13.21
2023-04-07T10:33:20.280Z,13.10
2023-04-07T10:36:06.637Z,12.84
2023-04-07T10:38:34.865Z,13.10
2023-04-07T10:41:36.682Z,13.39
2023-04-07T10:44:05.350Z,13.45
2023-04-07T10:47:07.416Z,13.36
2023-04-07T10:49:38.149Z,13.69
2023-04-07T10:52:25.416Z,13.71
2023-04-07T10:55:31.862Z,13.24
2023-04-07T10:58:20.518Z,11.72
2023-04-07T11:01:31.207Z,12.30
2023-04-07T11:04:02.358Z,12.25
2023-04-07T11:06:32.095Z,11.43
2023-04-07T11:09:00.704Z,11.24
2023-04-07T11:11:43.175Z,10.72
2023-04-07T11:14:11.313Z,10.93
2023-04-07T11:16:41.865Z,11.50
2023-04-07T11:19:10.154Z,12.12
2023-04-07T11:21:39.724Z,12.50
2023-04-07T11:24:08.021Z,12.96
2023-04-07T11:26:41.128Z,13.02
2023-04-07T11:29:10.590Z,12.61
2023-04-07T11:31:40.138Z,12.58
2023-04-07T11:34:09.187Z,12.92
2023-04-07T11:36:42.454Z,13.20
2023-04-07T11:39:20.671Z,13.93
2023-04-07T11:41:50.278Z,14.19
2023-04-07T11:44:18.535Z,14.24
2023-04-07T11:46:56.567Z,14.14
2023-04-07T11:49:26.151Z,12.89
2023-04-07T11:52:02.289Z,13.15
2023-04-07T11:54:41.370Z,13.81
2023-04-07T11:57:12.257Z,13.82
2023-04-07T11:59:41.563Z,14.04
2023-04-07T12:02:10.028Z,13.67
2023-04-07T12:04:41.003Z,14.09
2023-04-07T12:07:11.940Z,14.03
2023-04-07T12:09:40.114Z,14.13
2023-04-07T12:12:10.772Z,13.88
2023-04-07T12:14:39.153Z,14.35
2023-04-07T12:17:08.158Z,14.33
2023-04-07T12:19:36.553Z,14.44
2023-04-07T12:22:04.967Z,14.17
2023-04-07T12:24:34.713Z,14.23
2023-04-07T12:27:03.200Z,14.06
2023-04-07T12:29:31.653Z,14.13
2023-04-07T12:31:59.882Z,13.71
2023-04-07T12:34:28.155Z,13.80
2023-04-07T12:36:56.613Z,12.74
2023-04-07T12:39:24.690Z,13.39
2023-04-07T12:41:54.434Z,13.28
2023-04-07T12:44:22.634Z,12.76
2023-04-07T12:46:50.638Z,13.00
2023-04-07T12:49:18.991Z,13.11
2023-04-07T12:51:47.136Z,13.46
2023-04-07T12:54:15.151Z,12.54
2023-04-07T12:56:43.175Z,11.72
2023-04-07T12:59:13.071Z,11.83
2023-04-07T13:01:41.202Z,11.73
2023-04-07T13:04:09.359Z,11.59
2023-04-07T13:06:37.414Z,11.52
2023-04-07T13:09:05.467Z,11.53
2023-04-07T13:11:33.862Z,11.90
2023-04-07T13:14:02.006Z,12.04
2023-04-07T13:16:32.180Z,12.04
2023-04-07T13:19:00.174Z,11.65
2023-04-07T13:21:45.406Z,11.56
2023-04-07T13:24:15.283Z,11.34
2023-04-07T13:26:43.625Z,11.31
2023-04-07T13:29:11.948Z,11.37
2023-04-07T13:31:41.710Z,11.37
2023-04-07T13:34:09.697Z,11.70
2023-04-07T13:36:37.621Z,11.90
2023-04-07T13:39:05.704Z,11.71
2023-04-07T13:41:33.768Z,11.94
2023-04-07T13:44:02.479Z,11.92
2023-04-07T13:46:30.847Z,11.50
2023-04-07T13:49:00.689Z,10.95
2023-04-07T13:51:29.472Z,10.55
2023-04-07T13:53:57.633Z,10.41
2023-04-07T13:56:25.751Z,11.13
2023-04-07T13:58:54.166Z,10.62
2023-04-07T14:01:22.225Z,10.63
2023-04-07T14:03:50.668Z,10.28
2023-04-07T14:06:22.824Z,10.71
2023-04-07T14:08:51.164Z,10.77
2023-04-07T14:11:19.561Z,10.73
2023-04-07T14:13:48.007Z,10.23
2023-04-07T14:16:16.713Z,10.27
2023-04-07T14:18:44.774Z,10.28
2023-04-07T14:21:12.864Z,10.34
2023-04-07T14:23:42.457Z,10.25
2023-04-07T14:26:11.863Z,10.29
2023-04-07T14:28:40.116Z,10.50
2023-04-07T14:31:08.078Z,10.15
2023-04-07T14:33:36.596Z,9.86
2023-04-07T14:36:04.826Z,9.69
2023-04-07T14:38:35.218Z,9.99
2023-04-07T14:41:09.962Z,10.13
2023-04-07T14:43:39.184Z,9.93
2023-04-07T14:46:07.346Z,9.87
2023-04-07T14:48:35.829Z,9.63
2023-04-07T14:51:09.700Z,9.26
2023-04-07T14:53:37.962Z,9.54
2023-04-07T14:56:08.042Z,9.26
2023-04-07T14:58:37.634Z,9.38
2023-04-07T15:01:06.548Z,9.27
2023-04-07T15:03:34.857Z,9.36
2023-04-07T15:06:03.218Z,9.04
2023-04-07T15:08:33.282Z,9.17
2023-04-07T15:11:01.205Z,9.03
2023-04-07T15:13:30.552Z,9.07
2023-04-07T15:15:58.909Z,8.80
2023-04-07T15:18:27.023Z,8.63
2023-04-07T15:20:55.133Z,8.76
2023-04-07T15:23:22.994Z,8.93
2023-04-07T15:25:56.031Z,9.01
2023-04-07T15:28:24.368Z,8.92
2023-04-07T15:30:53.760Z,9.18
2023-04-07T15:33:21.818Z,9.30
2023-04-07T15:35:49.850Z,9.30
2023-04-07T15:38:18.265Z,9.20
2023-04-07T15:40:46.463Z,8.86
2023-04-07T15:43:14.624Z,8.80
2023-04-07T15:45:43.964Z,8.41
2023-04-07T15:48:14.998Z,8.31
2023-04-07T15:50:43.078Z,8.59
2023-04-07T15:53:11.345Z,8.06
2023-04-07T15:55:40.065Z,8.55
2023-04-07T15:58:08.639Z,8.39
2023-04-07T16:00:37.154Z,8.46
2023-04-07T16:03:06.252Z,8.35
2023-04-07T16:05:35.928Z,8.27
2023-04-07T16:08:03.962Z,7.90
2023-04-07T16:10:32.027Z,7.97
2023-04-07T16:13:00.095Z,8.19
2023-04-07T16:15:39.302Z,8.34
2023-04-07T16:18:10.322Z,8.57
2023-04-07T16:20:39.700Z,8.62
2023-04-07T16:23:07.705Z,8.68
2023-04-07T16:25:36.362Z,8.47
2023-04-07T16:28:04.401Z,8.37
2023-04-07T16:30:32.409Z,8.84
2023-04-07T16:33:01.882Z,8.92
2023-04-07T16:35:31.021Z,8.50
2023-04-07T16:38:04.117Z,8.88
2023-04-07T16:40:32.117Z,8.99
2023-04-07T16:43:00.209Z,9.00
2023-04-07T16:45:28.169Z,9.11
2023-04-07T16:47:56.110Z,9.15
2023-04-07T16:50:24.101Z,9.12
2023-04-07T16:52:52.025Z,9.21
2023-04-07T16:55:21.507Z,9.28
2023-04-07T16:57:50.237Z,9.29
2023-04-07T17:00:19.370Z,9.25
2023-04-07T17:02:47.363Z,9.32
2023-04-07T17:05:17.336Z,9.14
2023-04-07T17:07:45.251Z,9.22
2023-04-07T17:10:14.501Z,9.17
2023-04-07T17:12:43.990Z,9.21
2023-04-07T17:15:12.535Z,9.30
2023-04-07T17:17:40.532Z,9.27
2023-04-07T17:20:09.466Z,9.14
2023-04-07T17:22:37.678Z,9.27
2023-04-07T17:25:06.813Z,9.22
2023-04-07T17:27:34.919Z,9.29
2023-04-07T17:30:05.294Z,8.82
2023-04-07T17:32:33.381Z,9.00
2023-04-07T17:35:01.353Z,9.06
2023-04-07T17:37:29.221Z,9.11
2023-04-07T17:39:57.095Z,9.12
2023-04-07T17:42:25.012Z,9.18
2023-04-07T17:44:53.922Z,9.24
2023-04-07T17:47:23.201Z,9.30
2023-04-07T17:49:51.409Z,9.27
2023-04-07T17:52:19.351Z,9.35
2023-04-07T17:54:47.395Z,9.30
2023-04-07T17:57:15.904Z,9.28
2023-04-07T17:59:43.838Z,9.30
2023-04-07T18:02:11.842Z,9.35
2023-04-07T18:04:41.481Z,9.34
2023-04-07T18:07:09.655Z,9.25
2023-04-07T18:09:37.554Z,9.20
2023-04-07T18:12:06.331Z,9.25
2023-04-07T18:14:34.253Z,9.24
2023-04-07T18:17:02.194Z,9.14
2023-04-07T18:19:31.023Z,9.14
2023-04-07T18:22:01.036Z,9.13
2023-04-07T18:24:29.258Z,9.07
2023-04-07T18:26:57.670Z,9.12
2023-04-07T18:29:25.568Z,8.84
2023-04-07T18:31:53.494Z,8.98
2023-04-07T18:34:21.417Z,8.80
2023-04-07T18:36:49.797Z,8.82
2023-04-07T18:39:19.203Z,8.90
2023-04-07T18:41:48.329Z,8.93
2023-04-07T18:44:16.223Z,8.91
2023-04-07T18:46:44.252Z,8.86
2023-04-07T18:49:12.156Z,8.87
2023-04-07T18:51:40.092Z,8.86
2023-04-07T18:54:07.991Z,8.79
2023-04-07T18:56:37.514Z,8.74
2023-04-07T18:59:07.258Z,8.77
2023-04-07T19:01:35.708Z,8.68
2023-04-07T19:04:03.750Z,8.73
2023-04-07T19:06:32.490Z,8.72
2023-04-07T19:09:00.783Z,8.77
2023-04-07T19:11:31.201Z,8.76
2023-04-07T19:14:01.212Z,8.75
2023-04-07T19:16:32.708Z,8.56
2023-04-07T19:19:01.748Z,8.71
2023-04-07T19:21:31.228Z,8.59
2023-04-07T19:24:02.330Z,7.90
2023-04-07T19:26:30.926Z,8.53
2023-04-07T19:29:00.672Z,8.56
2023-04-07T19:31:29.769Z,8.57
2023-04-07T19:34:05.720Z,8.39
2023-04-07T19:36:33.720Z,8.55
2023-04-07T19:39:03.675Z,8.54
2023-04-07T19:41:35.365Z,8.55
2023-04-07T19:44:08.353Z,8.59
2023-04-07T19:46:36.557Z,8.65
2023-04-07T19:49:04.477Z,8.66
2023-04-07T19:51:33.055Z,8.46
2023-04-07T19:54:01.033Z,8.38
2023-04-07T19:56:28.998Z,8.35
2023-04-07T19:58:56.959Z,8.49
2023-04-07T20:01:26.455Z,8.58
2023-04-07T20:03:54.547Z,8.62
2023-04-07T20:06:24.907Z,8.50
2023-04-07T20:08:52.766Z,8.50
2023-04-07T20:11:21.687Z,8.53
2023-04-07T20:13:49.663Z,8.48
2023-04-07T20:16:17.912Z,8.39
2023-04-07T20:18:48.074Z,8.27
2023-04-07T20:21:16.457Z,8.24
2023-04-07T20:23:44.391Z,8.22
2023-04-07T20:26:12.257Z,8.22
2023-04-07T20:28:40.140Z,8.19
2023-04-07T20:31:08.145Z,8.13
2023-04-07T20:33:36.039Z,8.05
2023-04-07T20:36:05.654Z,8.05
2023-04-07T20:38:33.535Z,8.01
2023-04-07T20:41:01.568Z,8.02
2023-04-07T20:43:29.474Z,7.98
2023-04-07T20:45:58.103Z,7.86
2023-04-07T20:48:26.709Z,7.76
2023-04-07T20:50:54.679Z,7.68
2023-04-07T20:53:23.961Z,7.82
2023-04-07T20:55:51.996Z,7.85
2023-04-07T20:58:20.179Z,7.82
2023-04-07T21:00:48.085Z,7.69
2023-04-07T21:03:16.409Z,7.71
2023-04-07T21:05:45.824Z,7.74
2023-04-07T21:08:14.796Z,7.73
2023-04-07T21:10:44.182Z,7.63
2023-04-07T21:13:12.087Z,7.55
2023-04-07T21:15:42.321Z,7.53
2023-04-07T21:18:10.631Z,7.52
2023-04-07T21:20:38.645Z,7.49
2023-04-07T21:23:07.795Z,7.53
2023-04-07T21:25:37.561Z,7.43
2023-04-07T21:28:07.365Z,7.17
2023-04-07T21:30:35.292Z,7.22
2023-04-07T21:33:03.655Z,7.30
2023-04-07T21:35:31.633Z,7.48
2023-04-07T21:37:59.547Z,7.54
2023-04-07T21:40:27.456Z,7.53
2023-04-07T21:42:55.311Z,7.52
2023-04-07T21:45:24.588Z,7.55
2023-04-07T21:47:52.508Z,7.58
2023-04-07T21:50:20.445Z,7.60
2023-04-07T21:52:50.804Z,7.52
2023-04-07T21:55:19.036Z,7.43
2023-04-07T21:57:47.249Z,6.95
2023-04-07T22:00:16.502Z,7.09
2023-04-07T22:02:46.418Z,7.15
2023-04-07T22:05:14.668Z,7.07
2023-04-07T22:07:42.620Z,7.27
2023-04-07T22:10:11.646Z,7.32
2023-04-07T22:12:39.529Z,6.93
2023-04-07T22:15:08.563Z,7.00
2023-04-07T22:17:36.664Z,7.20
2023-04-07T22:20:07.298Z,7.19
2023-04-07T22:22:35.185Z,7.35
2023-04-07T22:25:03.361Z,7.43
2023-04-07T22:27:31.258Z,7.45
2023-04-07T22:29:59.170Z,7.41
2023-04-07T22:32:27.121Z,7.47
2023-04-07T22:34:55.040Z,7.46
2023-04-07T22:37:24.304Z,7.47
2023-04-07T22:39:52.192Z,7.47
2023-04-07T22:42:20.092Z,7.46
2023-04-07T22:44:47.969Z,7.43
2023-04-07T22:47:15.914Z,7.47
2023-04-07T22:49:43.815Z,7.34
2023-04-07T22:52:11.722Z,7.41
2023-04-07T22:54:41.034Z,7.54
2023-04-07T22:57:09.047Z,7.51
2023-04-07T22:59:37.170Z,7.55
2023-04-07T23:02:05.227Z,7.52
2023-04-07T23:04:33.146Z,7.33
2023-04-07T23:07:01.283Z,7.03
2023-04-07T23:09:29.190Z,7.21
2023-04-07T23:11:58.515Z,6.98
2023-04-07T23:14:26.395Z,6.94
2023-04-07T23:16:56.054Z,7.11
2023-04-07T23:19:24.309Z,7.22
2023-04-07T23:21:52.309Z,7.30
2023-04-07T23:24:20.595Z,7.22
2023-04-07T23:26:48.576Z,7.20
2023-04-07T23:29:17.856Z,7.22
2023-04-07T23:31:45.783Z,7.06
2023-04-07T23:34:13.722Z,6.92
2023-04-07T23:36:42.030Z,6.81
2023-04-07T23:39:09.944Z,6.99
2023-04-07T23:41:38.259Z,7.13
2023-04-07T23:44:07.007Z,7.22
2023-04-07T23:46:36.375Z,7.06
2023-04-07T23:49:04.345Z,7.18
2023-04-07T23:51:32.364Z,7.23
2023-04-07T23:54:00.215Z,7.28
2023-04-07T23:56:28.982Z,7.24
2023-04-07T23:58:57.003Z,7.32
